• Join FlightAware (Why Join?)
  • Login
  • US Flag 
Gobble Gobble! 
05:15PM EST


 

Airport Tracker/Info


-or-


 

Live Flight TrackerFlight Track Log ✈ JBU1516 ✈ 03-Oct-2013 ✈ KJFK - KSYR

Flight Track Log - Related Links

Times and Time Zones

All times are in EDT time to prevent confusion due to time zone crossing. See the JBU1516 flight status page for this flight to view local times or setup timezone preferences in your user account.

Time Position Orientation Groundspeed Altitude Reporting Facility
EDT Latitude Longitude Course Direction KTS MPH feet Rate Location/Type
05:42PM 40.5667 -73.7667 323° Northwest 234 269 3,100  Level New York TRACON
05:43PM 40.6000 -73.7000 57° Northeast 240 276 5,900 2,640 Climbing New York TRACON
05:44PM 40.6500 -73.6167 52° Northeast 265 305 8,700 2,400 Climbing New York TRACON
05:45PM 40.9250 -74.0364 316° Northwest  Level Estimated
05:45PM 40.7167 -73.5833 21° North 300 345 10,700  Level New York TRACON
05:46PM 40.9963 -74.1011 323° Northwest  Level Estimated
05:46PM 40.8167 -73.5833 360° North 342 394 12,200  Level New York TRACON
05:47PM 41.0675 -74.1660 304° West  Level Estimated
05:47PM 40.9167 -73.6000 353° North 360 414 14,800  Level New York TRACON
05:48PM 41.1386 -74.2310 323° Northwest  Level Estimated
05:48PM 41.0000 -73.6833 323° Northwest 361 415 16,800  Level New York TRACON
05:49PM 41.0500 -73.7833 304° West 363 418 17,000 60 Climbing New York TRACON
05:51PM 41.0925 -73.9978 285° West 347 399 17,000  Level New York Center
05:52PM 41.1186 -74.1092 287° West 334 384 17,000 360 Level New York Center
05:53PM 41.1464 -74.2236 288° West 329 379 17,800 1,320 Climbing New York Center
05:54PM 41.1706 -74.3267 287° West 323 372 19,700 1,080 Climbing New York Center
05:55PM 41.1981 -74.4467 287° West 329 379 20,000 120 Climbing New York Center
05:56PM 41.2272 -74.5753 287° West 348 400 20,000  Level New York Center
05:57PM 41.2906 -74.6781 309° West 348 400 20,000  Level New York Center
05:58PM 41.3556 -74.7897 308° West 365 420 20,000  Level New York Center
05:59PM 41.4208 -74.8931 310° West 371 427 20,000  Level New York Center
06:00PM 41.4836 -75.0022 308° West 376 433 20,000  Level New York Center
06:01PM 41.5506 -75.1092 310° West 376 433 20,000  Level New York Center
06:02PM 41.6153 -75.2158 309° West 376 433 20,000  Level New York Center
06:03PM 41.6778 -75.3228 308° West 376 433 20,000  Level New York Center
06:04PM 41.7425 -75.4300 309° West 376 433 20,000  Level New York Center
06:05PM 41.8067 -75.5403 308° West 376 433 20,000  Level New York Center
06:06PM 41.8711 -75.6481 309° West 376 433 20,000  Level New York Center
06:07PM 41.9333 -75.7558 308° West 376 433 20,000 -600 Level New York Center
06:08PM 41.9972 -75.8639 309° West 376 433 18,800 -1,200 Descending New York Center
06:09PM 42.0650 -75.9836 307° West 376 433 17,600 -1,620 Descending New York Center
06:10PM 42.1253 -76.0806 310° West 358 412 15,600 -2,040 Descending New York Center
06:11PM 42.2147 -76.1297 338° Northwest 345 397 13,600 -1,800 Descending New York Center
06:12PM 42.3108 -76.1208 North 325 374 12,000 -1,320 Descending New York Center
06:13PM 42.3986 -76.1111 North 330 380 11,000 -600 Descending New York Center
06:14PM 42.4706 -76.0997 North 303 349 11,000  Level Boston Center
06:15PM 42.5542 -76.0933 North 292 336 11,000 -360 Level Boston Center
06:16PM 42.6506 -76.0792 North 301 346 10,300 -1,020 Descending Boston Center
06:17PM 42.7294 -76.0922 353° North 284 327 8,900 -1,500 Descending Boston Center
06:18PM 42.8061 -76.1053 353° North 274 315 7,300 -1,680 Descending Boston Center
06:19PM 42.8808 -76.1156 354° North 270 311 5,600 -1,680 Descending Boston Center
06:20PM 42.9553 -76.1342 350° North 267 307 4,000 -840 Descending Boston Center
06:21PM 43.0167 -76.1747 334° Northwest 242 278 4,000 -660 Level Boston Center
06:22PM 43.0519 -76.2422 306° West 198 228 2,700 -960 Descending Boston Center
06:23PM 43.0864 -76.2728 327° Northwest 192 221 2,100 -540 Descending Boston Center
06:24PM 43.1047 -76.2228 63° Northeast 150 173 1,700 -600 Descending Boston Center
06:25PM 43.1064 -76.1689 88° East 132 152 1,000 -720 Descending Boston Center